createdAt,value
2022-09-18T00:00:17.451Z,10.1
2022-09-18T00:01:21.083Z,9.9
2022-09-18T00:02:25.329Z,9.9
2022-09-18T00:03:28.882Z,9.9
2022-09-18T00:04:31.787Z,10.1
2022-09-18T00:05:34.877Z,10
2022-09-18T00:06:37.865Z,9.9
2022-09-18T00:07:40.255Z,9.8
2022-09-18T00:08:42.574Z,9.8
2022-09-18T00:09:44.725Z,9.7
2022-09-18T00:10:47.905Z,9.7
2022-09-18T00:11:50.504Z,9.7
2022-09-18T00:12:53.222Z,9.7
2022-09-18T00:13:56.584Z,9.6
2022-09-18T00:14:59.536Z,9.7
2022-09-18T00:16:03.300Z,9.6
2022-09-18T00:17:11.180Z,9.6
2022-09-18T00:18:14.993Z,9.7
2022-09-18T00:19:18.549Z,9.7
2022-09-18T00:20:21.815Z,9.6
2022-09-18T00:21:25.573Z,9.7
2022-09-18T00:22:28.361Z,9.6
2022-09-18T00:23:31.813Z,9.7
2022-09-18T00:24:35.059Z,9.7
2022-09-18T00:25:37.582Z,9.6
2022-09-18T00:26:39.825Z,9.5
2022-09-18T00:27:42.609Z,9.5
2022-09-18T00:28:45.470Z,9.5
2022-09-18T00:29:48.616Z,9.4
2022-09-18T00:30:51.431Z,9.5
2022-09-18T00:31:55.487Z,9.5
2022-09-18T00:32:59.249Z,9.6
2022-09-18T00:34:02.770Z,9.6
2022-09-18T00:35:05.771Z,9.5
2022-09-18T00:36:08.875Z,9.5
2022-09-18T00:37:12.250Z,9.5
2022-09-18T00:38:15.605Z,9.4
2022-09-18T00:39:18.404Z,9.5
2022-09-18T00:40:21.114Z,9.5
2022-09-18T00:41:24.938Z,9.5
2022-09-18T00:42:27.725Z,9.4
2022-09-18T00:43:30.169Z,9.4
2022-09-18T00:44:33.171Z,9.4
2022-09-18T00:45:36.351Z,9.4
2022-09-18T00:46:39.986Z,9.4
2022-09-18T00:47:42.762Z,9.4
2022-09-18T00:48:46.779Z,9.3
2022-09-18T00:49:49.958Z,9.2
2022-09-18T00:50:52.873Z,9.4
2022-09-18T00:51:56.209Z,9.4
2022-09-18T00:52:59.028Z,9.4
2022-09-18T00:54:03.207Z,9.4
2022-09-18T00:55:05.528Z,9.3
2022-09-18T00:56:08.407Z,9.3
2022-09-18T00:57:10.645Z,9.3
2022-09-18T00:58:14.075Z,9.3
2022-09-18T00:59:17.243Z,9.3
2022-09-18T01:00:20.596Z,9.3
2022-09-18T01:01:23.776Z,9.3
2022-09-18T01:02:27.561Z,9.2
2022-09-18T01:03:31.255Z,9.3
2022-09-18T01:04:34.653Z,9.3
2022-09-18T01:05:38.090Z,9.3
2022-09-18T01:06:41.566Z,9.3
2022-09-18T01:07:44.901Z,9.2
2022-09-18T01:08:47.964Z,9.2
2022-09-18T01:09:51.138Z,9.3
2022-09-18T01:10:54.233Z,9.2
2022-09-18T01:11:57.127Z,9.2
2022-09-18T01:12:59.909Z,9.1
2022-09-18T01:14:02.491Z,9.1
2022-09-18T01:15:05.010Z,9.1
2022-09-18T01:16:08.595Z,9.2
2022-09-18T01:17:11.753Z,9.1
2022-09-18T01:18:14.581Z,9.1
2022-09-18T01:19:18.162Z,9
2022-09-18T01:20:21.596Z,9
2022-09-18T01:21:24.757Z,8.9
2022-09-18T01:22:27.954Z,9
2022-09-18T01:23:31.428Z,8.9
2022-09-18T01:24:34.578Z,9.1
2022-09-18T01:25:37.773Z,9.2
2022-09-18T01:26:40.871Z,9.1
2022-09-18T01:27:43.541Z,9
2022-09-18T01:28:46.529Z,9
2022-09-18T01:29:49.977Z,9
2022-09-18T01:30:53.330Z,9
2022-09-18T01:31:56.198Z,9.1
2022-09-18T01:32:59.617Z,9
2022-09-18T01:34:02.215Z,9.1
2022-09-18T01:35:43.447Z,9
2022-09-18T01:36:47.647Z,9.1
2022-09-18T01:37:50.297Z,9.1
2022-09-18T01:38:52.997Z,9
2022-09-18T01:39:56.735Z,9.1
2022-09-18T01:40:59.868Z,8.9
2022-09-18T01:42:03.089Z,9
2022-09-18T01:43:06.152Z,9.1
2022-09-18T01:44:08.745Z,9.1
2022-09-18T01:45:10.622Z,9
2022-09-18T01:46:13.529Z,8.9
2022-09-18T01:47:16.152Z,9.1
2022-09-18T01:48:19.792Z,9.1
2022-09-18T01:49:23.317Z,9.1
2022-09-18T01:50:26.689Z,9.1
2022-09-18T01:51:30.114Z,9
2022-09-18T01:52:34.067Z,9
2022-09-18T01:53:37.553Z,9.1
2022-09-18T01:54:40.742Z,9
2022-09-18T01:55:44.125Z,9.1
2022-09-18T01:56:47.482Z,9.1
2022-09-18T01:57:50.553Z,9.1
2022-09-18T01:58:53.421Z,9
2022-09-18T01:59:56.568Z,9.1
2022-09-18T02:00:59.989Z,9.1
2022-09-18T02:02:04.239Z,9.2
2022-09-18T02:03:07.549Z,9.1
2022-09-18T02:04:10.264Z,9.1
2022-09-18T02:05:12.865Z,9.1
2022-09-18T02:06:15.116Z,9.1
2022-09-18T02:07:18.286Z,9.1
2022-09-18T02:08:22.106Z,9.1
2022-09-18T02:09:25.668Z,9
2022-09-18T02:10:28.916Z,9.1
2022-09-18T02:11:32.056Z,9.2
2022-09-18T02:12:35.200Z,9.1
2022-09-18T02:13:38.060Z,9.1
2022-09-18T02:14:41.432Z,9.3
2022-09-18T02:15:44.498Z,9.3
2022-09-18T02:16:47.510Z,9.2
2022-09-18T02:17:50.367Z,9.1
2022-09-18T02:18:52.943Z,9.3
2022-09-18T02:19:56.395Z,9.2
2022-09-18T02:20:58.696Z,9.2
2022-09-18T02:22:01.836Z,9.2
2022-09-18T02:23:05.561Z,9.2
2022-09-18T02:24:09.292Z,9.3
2022-09-18T02:25:11.936Z,9.2
2022-09-18T02:26:15.197Z,9.2
2022-09-18T02:27:18.272Z,9.1
2022-09-18T02:28:20.430Z,9.1
2022-09-18T02:29:23.046Z,9.2
2022-09-18T02:30:25.839Z,9.2
2022-09-18T02:31:28.399Z,9.2
2022-09-18T02:32:31.122Z,9.3
2022-09-18T02:33:34.193Z,9.3
2022-09-18T02:34:37.272Z,9.3
2022-09-18T02:35:40.266Z,9.3
2022-09-18T02:36:42.150Z,9.3
2022-09-18T02:37:45.041Z,9.2
2022-09-18T02:38:48.774Z,9.3
2022-09-18T02:39:53.532Z,9.3
2022-09-18T02:40:56.285Z,9.2
2022-09-18T02:41:59.362Z,9.2
2022-09-18T02:43:02.348Z,9.3
2022-09-18T02:44:04.863Z,9.3
2022-09-18T02:45:07.481Z,9.2
2022-09-18T02:46:10.302Z,9.1
2022-09-18T02:47:12.829Z,9.3
2022-09-18T02:48:15.624Z,9.3
2022-09-18T02:49:18.493Z,9.2
2022-09-18T02:50:21.742Z,9.2
2022-09-18T02:51:24.601Z,9.3
2022-09-18T02:52:27.546Z,9.3
2022-09-18T02:53:31.166Z,9.3
2022-09-18T02:54:34.116Z,9.3
2022-09-18T02:55:37.802Z,9.3
2022-09-18T02:56:41.621Z,9.4
2022-09-18T02:57:43.897Z,9.4
2022-09-18T02:58:47.235Z,9.3
2022-09-18T02:59:50.105Z,9.3
2022-09-18T03:00:53.005Z,9.2
2022-09-18T03:01:57.055Z,9.2
2022-09-18T03:03:00.889Z,9.2
2022-09-18T03:04:03.940Z,9.2
2022-09-18T03:05:06.465Z,9.2
2022-09-18T03:06:09.420Z,9.3
2022-09-18T03:07:12.515Z,9.2
2022-09-18T03:08:15.389Z,9.1
2022-09-18T03:09:18.177Z,9.1
2022-09-18T03:10:21.764Z,9.2
2022-09-18T03:11:26.096Z,9.1
2022-09-18T03:12:28.830Z,9.2
2022-09-18T03:13:32.108Z,9.1
2022-09-18T03:14:35.099Z,9.2
2022-09-18T03:15:38.552Z,9.2
2022-09-18T03:16:41.625Z,9.3
2022-09-18T03:17:44.696Z,9.2
2022-09-18T03:18:47.229Z,9.2
2022-09-18T03:19:50.303Z,9.1
2022-09-18T03:20:53.083Z,9.1
2022-09-18T03:21:55.669Z,9.1
2022-09-18T03:22:59.190Z,9.1
2022-09-18T03:24:02.594Z,9.1
2022-09-18T03:25:05.726Z,9.1
2022-09-18T03:26:08.586Z,9.1
2022-09-18T03:27:12.634Z,9
2022-09-18T03:28:16.179Z,9.1
2022-09-18T03:29:19.445Z,9
2022-09-18T03:30:22.306Z,9
2022-09-18T03:31:25.576Z,9
2022-09-18T03:32:29.089Z,9
2022-09-18T03:33:32.261Z,9
2022-09-18T03:34:35.694Z,9
2022-09-18T03:35:38.564Z,9
2022-09-18T03:36:41.434Z,9
2022-09-18T03:37:44.322Z,8.9
2022-09-18T03:38:47.683Z,8.9
2022-09-18T03:39:50.284Z,8.9
2022-09-18T03:40:53.429Z,8.8
2022-09-18T03:41:57.222Z,8.9
2022-09-18T03:43:01.260Z,8.9
2022-09-18T03:44:03.975Z,8.9
2022-09-18T03:45:07.204Z,8.8
2022-09-18T03:46:10.951Z,8.8
2022-09-18T03:47:13.470Z,8.8
2022-09-18T03:48:16.514Z,8.9
2022-09-18T03:49:19.312Z,8.9
2022-09-18T03:50:22.484Z,8.8
2022-09-18T03:51:25.275Z,8.8
2022-09-18T03:52:27.432Z,8.8
2022-09-18T03:53:30.140Z,8.8
2022-09-18T03:54:32.758Z,8.8
2022-09-18T03:55:35.466Z,8.7
2022-09-18T03:56:38.526Z,8.7
2022-09-18T03:57:42.216Z,8.6
2022-09-18T03:58:45.816Z,8.7
2022-09-18T03:59:48.750Z,8.8
2022-09-18T04:00:51.969Z,8.8
2022-09-18T04:01:55.893Z,8.8
2022-09-18T04:02:59.173Z,8.9
2022-09-18T04:04:02.241Z,8.8
2022-09-18T04:05:05.382Z,8.7
2022-09-18T04:06:08.468Z,8.9
2022-09-18T04:07:11.461Z,8.9
2022-09-18T04:08:13.968Z,8.9
2022-09-18T04:09:16.480Z,8.8
2022-09-18T04:10:19.463Z,8.6
2022-09-18T04:11:21.966Z,8.8
2022-09-18T04:12:25.670Z,8.7
2022-09-18T04:13:29.394Z,8.7
2022-09-18T04:14:33.633Z,8.7
2022-09-18T04:15:36.909Z,8.6
2022-09-18T04:16:40.486Z,8.6
2022-09-18T04:17:43.665Z,8.6
2022-09-18T04:18:46.539Z,8.7
2022-09-18T04:19:55.378Z,8.7
2022-09-18T04:20:57.885Z,8.7
2022-09-18T04:22:00.702Z,8.7
2022-09-18T04:23:04.250Z,8.6
2022-09-18T04:24:07.517Z,8.6
2022-09-18T04:25:09.954Z,8.7
2022-09-18T04:26:12.664Z,8.8
2022-09-18T04:27:15.739Z,8.7
2022-09-18T04:28:18.540Z,8.7
2022-09-18T04:29:21.891Z,8.7
2022-09-18T04:30:26.297Z,8.7
2022-09-18T04:31:30.180Z,8.8
2022-09-18T04:32:34.464Z,8.6
2022-09-18T04:33:37.262Z,8.6
2022-09-18T04:34:40.343Z,8.5
2022-09-18T04:35:43.239Z,8.6
2022-09-18T04:36:46.320Z,8.6
2022-09-18T04:37:49.741Z,8.6
2022-09-18T04:38:52.882Z,8.5
2022-09-18T04:39:56.454Z,8.6
2022-09-18T04:40:59.757Z,8.5
2022-09-18T04:42:01.986Z,8.5
2022-09-18T04:43:04.152Z,8.6
2022-09-18T04:44:07.491Z,8.5
2022-09-18T04:45:11.264Z,8.6
2022-09-18T04:46:15.118Z,8.6
2022-09-18T04:47:18.528Z,8.6
2022-09-18T04:48:22.016Z,8.6
2022-09-18T04:49:25.089Z,8.6
2022-09-18T04:50:28.837Z,8.5
2022-09-18T04:51:32.570Z,8.6
2022-09-18T04:52:35.092Z,8.5
2022-09-18T04:53:38.003Z,8.4
2022-09-18T04:54:41.350Z,8.5
2022-09-18T04:55:44.450Z,8.6
2022-09-18T04:56:46.879Z,8.6
2022-09-18T04:57:55.869Z,8.6
2022-09-18T04:58:59.026Z,8.5
2022-09-18T05:00:02.103Z,8.4
2022-09-18T05:01:05.817Z,8.5
2022-09-18T05:02:10.276Z,8.5
2022-09-18T05:03:12.787Z,8.4
2022-09-18T05:04:16.621Z,8.5
2022-09-18T05:05:19.987Z,8.5
2022-09-18T05:06:22.980Z,8.5
2022-09-18T05:07:25.775Z,8.4
2022-09-18T05:08:29.231Z,8.5
2022-09-18T05:09:32.029Z,8.5
2022-09-18T05:10:34.550Z,8.5
2022-09-18T05:11:37.540Z,8.4
2022-09-18T05:12:40.332Z,8.4
2022-09-18T05:13:43.204Z,8.4
2022-09-18T05:14:45.807Z,8.5
2022-09-18T05:15:48.312Z,8.6
2022-09-18T05:16:52.129Z,8.6
2022-09-18T05:17:55.864Z,8.6
2022-09-18T05:18:59.126Z,8.5
2022-09-18T05:20:02.300Z,8.5
2022-09-18T05:21:05.524Z,8.6
2022-09-18T05:22:08.601Z,8.5
2022-09-18T05:23:11.742Z,8.5
2022-09-18T05:24:14.476Z,8.5
2022-09-18T05:25:17.537Z,8.6
2022-09-18T05:26:20.075Z,8.6
2022-09-18T05:27:28.349Z,8.5
2022-09-18T05:28:31.831Z,8.6
2022-09-18T05:29:34.262Z,8.7
2022-09-18T05:30:37.133Z,8.7
2022-09-18T05:31:40.720Z,8.7
2022-09-18T05:32:43.990Z,8.6
2022-09-18T05:33:47.382Z,8.7
2022-09-18T05:34:50.862Z,8.7
2022-09-18T05:35:54.314Z,8.8
2022-09-18T05:36:57.690Z,8.7
2022-09-18T05:38:00.951Z,8.6
2022-09-18T05:39:04.798Z,8.6
2022-09-18T05:40:08.340Z,8.7
2022-09-18T05:41:11.229Z,8.6
2022-09-18T05:42:14.496Z,8.8
2022-09-18T05:43:18.297Z,8.7
2022-09-18T05:44:21.676Z,8.8
2022-09-18T05:45:24.559Z,8.8
2022-09-18T05:46:28.127Z,8.8
2022-09-18T05:47:30.858Z,8.9
2022-09-18T05:48:34.376Z,8.9
2022-09-18T05:49:38.327Z,8.9
2022-09-18T05:50:41.632Z,8.9
2022-09-18T05:51:44.332Z,8.8
2022-09-18T05:52:47.200Z,8.8
2022-09-18T05:53:50.283Z,8.9
2022-09-18T05:54:53.992Z,8.9
2022-09-18T05:55:57.106Z,8.9
2022-09-18T05:57:00.530Z,9
2022-09-18T05:58:03.398Z,9
2022-09-18T05:59:06.388Z,9.1
2022-09-18T06:00:08.625Z,9
2022-09-18T06:01:11.687Z,9.1
2022-09-18T06:02:14.951Z,8.9
2022-09-18T06:03:18.512Z,9
2022-09-18T06:04:22.396Z,9.1
2022-09-18T06:05:26.509Z,9.1
2022-09-18T06:06:29.712Z,9.1
2022-09-18T06:07:32.901Z,9.1
2022-09-18T06:08:36.350Z,9.1
2022-09-18T06:09:39.798Z,9.1
2022-09-18T06:10:42.890Z,9
2022-09-18T06:11:46.593Z,9.1
2022-09-18T06:12:49.580Z,8.9
2022-09-18T06:13:52.775Z,9
2022-09-18T06:14:55.490Z,9.1
2022-09-18T06:15:58.668Z,9
2022-09-18T06:17:01.881Z,9.1
2022-09-18T06:18:04.404Z,9.1
2022-09-18T06:19:06.926Z,9
2022-09-18T06:20:10.504Z,9.1
2022-09-18T06:21:13.892Z,9
2022-09-18T06:22:17.084Z,9.1
2022-09-18T06:23:20.295Z,9.2
2022-09-18T06:24:23.495Z,9.2
2022-09-18T06:25:26.565Z,9.3
2022-09-18T06:26:29.548Z,9.3
2022-09-18T06:27:32.350Z,9.3
2022-09-18T06:28:35.070Z,9.3
2022-09-18T06:29:37.667Z,9.4
2022-09-18T06:30:40.457Z,9.4
2022-09-18T06:31:44.245Z,9.4
2022-09-18T06:32:47.382Z,9.4
2022-09-18T06:33:50.687Z,9.4
2022-09-18T06:34:53.327Z,9.4
2022-09-18T06:35:56.389Z,9.5
2022-09-18T06:37:00.140Z,9.6
2022-09-18T06:38:03.232Z,9.7
2022-09-18T06:39:05.751Z,9.6
2022-09-18T06:40:09.676Z,9.6
2022-09-18T06:41:12.856Z,9.6
2022-09-18T06:42:15.847Z,9.5
2022-09-18T06:43:18.922Z,9.7
2022-09-18T06:44:21.911Z,9.7
2022-09-18T06:45:25.532Z,9.7
2022-09-18T06:46:28.805Z,9.7
2022-09-18T06:47:32.234Z,9.8
2022-09-18T06:48:35.809Z,9.7
2022-09-18T06:49:39.161Z,9.7
2022-09-18T06:50:42.787Z,9.8
2022-09-18T06:51:46.298Z,9.9
2022-09-18T06:52:50.033Z,9.9
2022-09-18T06:53:52.691Z,10
2022-09-18T06:54:55.332Z,9.9
2022-09-18T06:55:57.092Z,9.8
2022-09-18T06:57:00.159Z,9.9
2022-09-18T06:58:03.303Z,9.9
2022-09-18T06:59:06.211Z,10
2022-09-18T07:00:09.635Z,10
2022-09-18T07:01:13.083Z,10.1
2022-09-18T07:02:21.640Z,10.1
2022-09-18T07:03:24.916Z,10
2022-09-18T07:04:28.067Z,9.9
2022-09-18T07:05:31.237Z,10.1
2022-09-18T07:06:33.473Z,10.1
2022-09-18T07:07:37.208Z,9.9
2022-09-18T07:08:41.306Z,10
2022-09-18T07:09:44.578Z,10
2022-09-18T07:10:47.289Z,9.9
2022-09-18T07:11:50.641Z,10
2022-09-18T07:12:54.015Z,10.1
2022-09-18T07:13:57.275Z,10.1
2022-09-18T07:14:59.986Z,10
2022-09-18T07:16:03.848Z,10.1
2022-09-18T07:17:07.238Z,10.2
2022-09-18T07:18:09.998Z,10.3
2022-09-18T07:19:12.523Z,10.2
2022-09-18T07:20:15.964Z,10.3
2022-09-18T07:21:19.108Z,10.2
2022-09-18T07:22:21.986Z,10.4
2022-09-18T07:23:25.419Z,10.4
2022-09-18T07:24:29.112Z,10.5
2022-09-18T07:25:33.305Z,10.5
2022-09-18T07:26:36.505Z,10.5
2022-09-18T07:27:39.672Z,10.6
2022-09-18T07:28:42.402Z,10.5
2022-09-18T07:29:45.771Z,10.6
2022-09-18T07:30:48.920Z,10.6
2022-09-18T07:31:51.635Z,10.8
2022-09-18T07:32:54.225Z,10.7
2022-09-18T07:33:56.660Z,10.6
2022-09-18T07:34:59.833Z,10.6
2022-09-18T07:36:02.533Z,10.9
2022-09-18T07:37:05.092Z,10.9
2022-09-18T07:38:08.505Z,10.9
2022-09-18T07:39:11.852Z,10.9
2022-09-18T07:40:15.920Z,10.8
2022-09-18T07:41:19.339Z,10.9
2022-09-18T07:42:22.521Z,11
2022-09-18T07:43:25.665Z,11.1
2022-09-18T07:44:29.110Z,11.1
2022-09-18T07:45:32.256Z,11.1
2022-09-18T07:46:35.675Z,11.1
2022-09-18T07:47:39.293Z,11.1
2022-09-18T07:48:42.086Z,11
2022-09-18T07:49:44.526Z,11
2022-09-18T07:50:47.952Z,10.9
2022-09-18T07:51:50.939Z,11.1
2022-09-18T07:52:53.260Z,10.9
2022-09-18T07:53:55.242Z,10.8
2022-09-18T07:54:58.845Z,10.9
2022-09-18T07:56:03.244Z,10.9
2022-09-18T07:57:06.726Z,10.8
2022-09-18T07:58:10.032Z,10.8
2022-09-18T07:59:12.827Z,11.1
2022-09-18T08:00:15.645Z,11.1
2022-09-18T08:01:18.245Z,11.1
2022-09-18T08:02:21.698Z,11
2022-09-18T08:03:24.572Z,11.1
2022-09-18T08:04:27.273Z,11.1
2022-09-18T08:05:29.700Z,11
2022-09-18T08:06:32.204Z,11
2022-09-18T08:07:34.938Z,10.8
2022-09-18T08:08:37.815Z,10.9
2022-09-18T08:09:41.226Z,10.9
2022-09-18T08:10:44.303Z,10.9
2022-09-18T08:11:48.336Z,10.8
2022-09-18T08:12:51.880Z,10.8
2022-09-18T08:13:55.139Z,10.8
2022-09-18T08:14:57.929Z,10.9
2022-09-18T08:16:01.064Z,11
2022-09-18T08:17:03.631Z,10.9
2022-09-18T08:18:07.033Z,10.9
2022-09-18T08:19:10.159Z,11.1
2022-09-18T08:20:12.316Z,11.2
2022-09-18T08:21:15.539Z,11.2
2022-09-18T08:22:17.426Z,11.1
2022-09-18T08:23:19.860Z,11.2
2022-09-18T08:24:22.984Z,11.1
2022-09-18T08:25:26.340Z,11.2
2022-09-18T08:26:30.219Z,11.2
2022-09-18T08:27:34.243Z,11.2
2022-09-18T08:28:37.719Z,11.2
2022-09-18T08:29:40.985Z,11.2
2022-09-18T08:30:43.944Z,11.1
2022-09-18T08:31:47.833Z,11.2
2022-09-18T08:32:51.319Z,11.3
2022-09-18T08:33:53.639Z,11.5
2022-09-18T08:34:55.827Z,11.4
2022-09-18T08:35:58.802Z,11.6
2022-09-18T08:37:01.592Z,11.3
2022-09-18T08:38:04.616Z,11.6
2022-09-18T08:39:08.029Z,11.7
2022-09-18T08:40:11.421Z,11.6
2022-09-18T08:41:14.618Z,11.9
2022-09-18T08:42:17.479Z,11.9
2022-09-18T08:43:21.391Z,11.9
2022-09-18T08:44:25.474Z,12
2022-09-18T08:45:27.825Z,12.2
2022-09-18T08:46:31.280Z,12.2
2022-09-18T08:47:34.105Z,12.2
2022-09-18T08:48:36.820Z,12.4
2022-09-18T08:49:39.341Z,12.5
2022-09-18T08:50:42.245Z,12.2
2022-09-18T08:51:45.336Z,12.1
2022-09-18T08:52:48.712Z,12.1
2022-09-18T08:53:52.161Z,12.3
2022-09-18T08:54:55.026Z,12.5
2022-09-18T08:55:58.106Z,12.6
2022-09-18T08:57:00.830Z,12.2
2022-09-18T08:58:04.327Z,12.2
2022-09-18T08:59:08.088Z,12.3
2022-09-18T09:00:10.532Z,12.5
2022-09-18T09:01:14.324Z,12.9
2022-09-18T09:02:19.916Z,13
2022-09-18T09:03:27.450Z,13.3
2022-09-18T09:04:29.684Z,13.1
2022-09-18T09:05:32.248Z,13.4
2022-09-18T09:06:36.133Z,13.2
2022-09-18T09:07:39.862Z,13.2
2022-09-18T09:08:42.912Z,13.2
2022-09-18T09:09:45.713Z,13.5
2022-09-18T09:10:48.998Z,13.5
2022-09-18T09:11:52.088Z,13.7
2022-09-18T09:12:55.260Z,13.5
2022-09-18T09:13:58.394Z,13.6
2022-09-18T09:15:02.832Z,13.1
2022-09-18T09:16:06.134Z,13.2
2022-09-18T09:17:09.209Z,13.7
2022-09-18T09:18:12.107Z,13.8
2022-09-18T09:19:15.200Z,13.7
2022-09-18T09:20:18.902Z,13.9
2022-09-18T09:21:21.598Z,13.9
2022-09-18T09:22:24.672Z,13.7
2022-09-18T09:23:27.465Z,13.5
2022-09-18T09:24:30.896Z,13.9
2022-09-18T09:25:33.937Z,14.2
2022-09-18T09:26:37.061Z,14
2022-09-18T09:27:40.238Z,14.3
2022-09-18T09:28:42.822Z,14.7
2022-09-18T09:29:46.326Z,14.8
2022-09-18T09:30:50.312Z,14.3
2022-09-18T09:31:54.272Z,13.9
2022-09-18T09:32:57.261Z,14.2
2022-09-18T09:33:59.934Z,14.1
2022-09-18T09:35:03.634Z,14
2022-09-18T09:36:06.346Z,14.2
2022-09-18T09:37:09.441Z,14.1
2022-09-18T09:38:12.516Z,14.3
2022-09-18T09:39:15.383Z,14.1
2022-09-18T09:40:19.198Z,13.6
2022-09-18T09:41:22.650Z,13.7
2022-09-18T09:42:26.209Z,13.7
2022-09-18T09:43:29.558Z,13.7
2022-09-18T09:44:32.721Z,13.6
2022-09-18T09:45:36.783Z,13.8
2022-09-18T09:46:41.269Z,13.8
2022-09-18T09:47:44.217Z,14.3
2022-09-18T09:48:47.115Z,14.6
2022-09-18T09:49:49.904Z,14.8
2022-09-18T09:50:52.703Z,15
2022-09-18T09:51:55.531Z,14.5
2022-09-18T09:52:57.574Z,14.3
2022-09-18T09:54:01.087Z,14.1
2022-09-18T09:55:04.061Z,13.9
2022-09-18T09:56:06.844Z,14.1
2022-09-18T09:57:09.638Z,14.1
2022-09-18T09:58:12.217Z,14.4
2022-09-18T09:59:14.992Z,14.4
2022-09-18T10:00:18.878Z,14.1
2022-09-18T10:01:23.495Z,14.2
2022-09-18T10:02:28.313Z,14.2
2022-09-18T10:03:31.629Z,14.4
2022-09-18T10:04:34.617Z,14.2
2022-09-18T10:05:37.052Z,13.9
2022-09-18T10:06:40.143Z,13.7
2022-09-18T10:07:43.573Z,13.8
2022-09-18T10:08:46.237Z,13.7
2022-09-18T10:09:49.228Z,13.8
2022-09-18T10:10:52.403Z,13.8
2022-09-18T10:11:58.764Z,13.8
2022-09-18T10:13:01.369Z,13.8
2022-09-18T10:14:04.087Z,14.4
2022-09-18T10:15:06.875Z,15
2022-09-18T10:16:11.051Z,14.8
2022-09-18T10:17:14.591Z,15.6
2022-09-18T10:18:18.058Z,15.4
2022-09-18T10:19:20.751Z,14.7
2022-09-18T10:20:23.661Z,14.3
2022-09-18T10:21:26.923Z,13.6
2022-09-18T10:22:30.470Z,12.8
2022-09-18T10:23:35.394Z,12.8
2022-09-18T10:24:38.268Z,11.8
2022-09-18T10:25:42.005Z,11.8
2022-09-18T10:26:45.370Z,10.7
2022-09-18T10:27:48.614Z,10.5
2022-09-18T10:28:51.989Z,10.6
2022-09-18T10:29:55.086Z,11
2022-09-18T10:30:57.956Z,10.5
2022-09-18T10:32:01.561Z,10.6
2022-09-18T10:33:05.329Z,10.1
2022-09-18T10:34:08.930Z,10.2
2022-09-18T10:35:11.862Z,10.4
2022-09-18T10:36:14.767Z,10.3
2022-09-18T10:37:17.277Z,10.4
2022-09-18T10:38:20.070Z,10.4
2022-09-18T10:39:22.587Z,10.7
2022-09-18T10:40:25.964Z,10.6
2022-09-18T10:41:28.728Z,10.7
2022-09-18T10:42:31.486Z,10.2
2022-09-18T10:43:34.384Z,9.8
2022-09-18T10:44:37.555Z,9.8
2022-09-18T10:45:41.004Z,10.1
2022-09-18T10:46:44.225Z,10.3
2022-09-18T10:47:47.454Z,10.2
2022-09-18T10:48:51.090Z,10.1
2022-09-18T10:49:54.647Z,10.2
2022-09-18T10:50:57.941Z,10.4
2022-09-18T10:52:00.662Z,10.6
2022-09-18T10:53:03.260Z,10.6
2022-09-18T10:54:06.218Z,10.7
2022-09-18T10:55:09.205Z,10.6
2022-09-18T10:56:12.275Z,10.7
2022-09-18T10:57:14.599Z,11
2022-09-18T10:58:17.477Z,11.4
2022-09-18T10:59:21.210Z,11.9
2022-09-18T11:00:23.908Z,12.2
2022-09-18T11:01:27.811Z,13
2022-09-18T11:02:30.669Z,13.3
2022-09-18T11:03:34.174Z,13.2
2022-09-18T11:04:38.020Z,13.6
2022-09-18T11:05:42.079Z,13.3
2022-09-18T11:06:45.909Z,13.8
2022-09-18T11:07:49.237Z,14.2
2022-09-18T11:08:52.024Z,14.8
2022-09-18T11:09:54.528Z,14.3
2022-09-18T11:10:57.691Z,14.1
2022-09-18T11:12:00.863Z,14.3
2022-09-18T11:13:03.566Z,14.4
2022-09-18T11:14:07.291Z,14.4
2022-09-18T11:15:10.559Z,14.3
2022-09-18T11:16:13.974Z,15.4
2022-09-18T11:17:17.388Z,16.2
2022-09-18T11:18:19.895Z,15.2
2022-09-18T11:19:23.238Z,14.9
2022-09-18T11:20:27.038Z,15.5
2022-09-18T11:21:30.867Z,16
2022-09-18T11:22:34.358Z,15.4
2022-09-18T11:23:37.923Z,16.3
2022-09-18T11:24:48.191Z,16.4
2022-09-18T11:25:51.550Z,16.1
2022-09-18T11:26:54.832Z,15.7
2022-09-18T11:27:57.909Z,16.4
2022-09-18T11:29:01.084Z,16.6
2022-09-18T11:30:03.874Z,16
2022-09-18T11:31:06.983Z,15.8
2022-09-18T11:32:09.713Z,15.6
2022-09-18T11:33:12.251Z,15.1
2022-09-18T11:34:14.856Z,14.8
2022-09-18T11:35:18.004Z,14.3
2022-09-18T11:36:21.072Z,14.4
2022-09-18T11:37:25.472Z,13.7
2022-09-18T11:38:28.395Z,13.8
2022-09-18T11:39:32.031Z,13.4
2022-09-18T11:40:35.558Z,14
2022-09-18T11:41:38.100Z,14.4
2022-09-18T11:42:41.028Z,14.7
2022-09-18T11:43:44.199Z,14.5
2022-09-18T11:44:47.997Z,15
2022-09-18T11:45:50.989Z,14.9
2022-09-18T11:46:54.785Z,14.8
2022-09-18T11:47:57.720Z,14.4
2022-09-18T11:49:06.440Z,14.3
2022-09-18T11:50:09.417Z,14.3
2022-09-18T11:51:12.564Z,14.8
2022-09-18T11:52:16.272Z,14.4
2022-09-18T11:53:19.544Z,14.5
2022-09-18T11:54:22.221Z,15.3
2022-09-18T11:55:25.408Z,15.5
2022-09-18T11:56:28.204Z,15.4
2022-09-18T11:57:31.272Z,15.8
2022-09-18T11:58:34.443Z,15.9
2022-09-18T11:59:37.816Z,15.5
2022-09-18T12:00:40.545Z,15.1
2022-09-18T12:01:43.751Z,15.3
2022-09-18T12:02:48.192Z,15.2
2022-09-18T12:03:51.584Z,15.1
2022-09-18T12:04:54.743Z,15.2
2022-09-18T12:05:57.475Z,15.2
2022-09-18T12:06:59.989Z,15.1
2022-09-18T12:08:02.088Z,14.8
2022-09-18T12:09:06.428Z,14.9
2022-09-18T12:10:10.319Z,15.1
2022-09-18T12:11:14.130Z,15.1
2022-09-18T12:12:17.547Z,15.3
2022-09-18T12:13:21.273Z,14.8
2022-09-18T12:14:23.991Z,14.6
2022-09-18T12:15:26.860Z,14.3
2022-09-18T12:16:30.420Z,14.6
2022-09-18T12:17:33.296Z,14.3
2022-09-18T12:18:36.561Z,14.6
2022-09-18T12:19:39.631Z,14.6
2022-09-18T12:20:42.356Z,15.1
2022-09-18T12:21:45.785Z,14.1
2022-09-18T12:22:48.464Z,13.8
2022-09-18T12:23:52.442Z,13.5
2022-09-18T12:24:56.148Z,13.4
2022-09-18T12:25:59.436Z,13.1
2022-09-18T12:27:02.612Z,12.9
2022-09-18T12:28:05.476Z,12.6
2022-09-18T12:29:08.901Z,12.5
2022-09-18T12:30:12.253Z,12.8
2022-09-18T12:31:15.334Z,13
2022-09-18T12:32:18.398Z,12.8
2022-09-18T12:33:20.994Z,12.9
2022-09-18T12:34:23.725Z,12.3
2022-09-18T12:35:26.907Z,12.3
2022-09-18T12:36:30.432Z,12.2
2022-09-18T12:37:33.504Z,12.4
2022-09-18T12:38:36.406Z,12.1
2022-09-18T12:39:40.611Z,12.1
2022-09-18T12:40:44.308Z,12.3
2022-09-18T12:41:47.578Z,12.2
2022-09-18T12:42:51.347Z,11.5
2022-09-18T12:43:54.252Z,11.2
2022-09-18T12:44:57.159Z,10.8
2022-09-18T12:46:00.145Z,10.5
2022-09-18T12:47:02.876Z,10.2
2022-09-18T12:48:06.049Z,10
2022-09-18T12:49:09.419Z,10.2
2022-09-18T12:50:12.862Z,10.2
2022-09-18T12:51:15.654Z,10.1
2022-09-18T12:52:18.260Z,10.4
2022-09-18T12:53:21.882Z,10.3
2022-09-18T12:54:24.396Z,9.8
2022-09-18T12:55:27.936Z,10.1
2022-09-18T12:56:31.997Z,10.1
2022-09-18T12:57:42.417Z,10.2
2022-09-18T12:58:45.973Z,10.3
2022-09-18T12:59:48.777Z,10.1
2022-09-18T13:00:51.460Z,10.1
2022-09-18T13:01:54.928Z,10
2022-09-18T13:02:57.983Z,10.1
2022-09-18T13:04:01.219Z,10.4
2022-09-18T13:05:04.299Z,10.4
2022-09-18T13:06:07.296Z,10.6
2022-09-18T13:07:10.183Z,10.7
2022-09-18T13:08:13.105Z,10.9
2022-09-18T13:09:15.789Z,11.1
2022-09-18T13:10:18.582Z,11.1
2022-09-18T13:11:21.538Z,10.9
2022-09-18T13:12:25.923Z,10.9
2022-09-18T13:13:29.474Z,10.6
2022-09-18T13:14:32.597Z,10.7
2022-09-18T13:15:36.021Z,10.9
2022-09-18T13:16:39.230Z,10.6
2022-09-18T13:17:42.412Z,10.8
2022-09-18T13:18:45.104Z,10.7
2022-09-18T13:19:48.530Z,10.7
2022-09-18T13:20:51.054Z,10.7
2022-09-18T13:21:54.715Z,10.8
2022-09-18T13:22:57.729Z,10.6
2022-09-18T13:24:01.048Z,10.7
2022-09-18T13:25:04.494Z,10.9
2022-09-18T13:26:07.684Z,10.8
2022-09-18T13:27:11.490Z,10.6
2022-09-18T13:28:15.314Z,10.7
2022-09-18T13:29:19.479Z,10.7
2022-09-18T13:30:22.179Z,10.7
2022-09-18T13:31:25.773Z,10.8
2022-09-18T13:32:29.182Z,10.9
2022-09-18T13:33:31.684Z,10.9
2022-09-18T13:34:34.757Z,10.7
2022-09-18T13:35:38.490Z,10.4
2022-09-18T13:36:42.306Z,10.6
2022-09-18T13:37:45.333Z,10.4
2022-09-18T13:38:49.018Z,10.6
2022-09-18T13:40:13.858Z,10.7
2022-09-18T13:41:17.566Z,10.6
2022-09-18T13:42:21.075Z,10.4
2022-09-18T13:43:24.836Z,10.4
2022-09-18T13:44:28.401Z,10.5
2022-09-18T13:45:31.713Z,10.4
2022-09-18T13:46:35.188Z,10.7
2022-09-18T13:47:39.314Z,10.9
2022-09-18T13:48:41.829Z,11.2
2022-09-18T13:49:45.010Z,11.7
2022-09-18T13:50:47.948Z,12.1
2022-09-18T13:51:50.557Z,11.9
2022-09-18T13:52:54.315Z,12.7
2022-09-18T13:53:57.750Z,13.1
2022-09-18T13:55:00.256Z,12.6
2022-09-18T13:56:03.687Z,13
2022-09-18T13:57:06.020Z,13.2
2022-09-18T13:58:09.376Z,13.6
2022-09-18T13:59:13.443Z,13.8
2022-09-18T14:00:16.472Z,13.7
2022-09-18T14:01:19.898Z,13.5
2022-09-18T14:02:23.174Z,13.4
2022-09-18T14:03:29.383Z,13.1
2022-09-18T14:04:32.241Z,13.7
2022-09-18T14:05:34.382Z,13.5
2022-09-18T14:06:37.909Z,12.8
2022-09-18T14:07:41.146Z,12.4
2022-09-18T14:08:43.942Z,12.8
2022-09-18T14:09:47.380Z,12.7
2022-09-18T14:11:17.401Z,12.9
2022-09-18T14:12:20.682Z,12.7
2022-09-18T14:13:23.755Z,12.5
2022-09-18T14:14:27.500Z,12.5
2022-09-18T14:15:30.870Z,12.5
2022-09-18T14:16:34.653Z,12.6
2022-09-18T14:17:37.693Z,12
2022-09-18T14:18:40.565Z,12.2
2022-09-18T14:19:43.910Z,12.2
2022-09-18T14:20:46.786Z,12.3
2022-09-18T14:21:49.396Z,12.3